Time;durP1;ratioP1;P1;durP2;ratioP2;P2;SDS_P1;SDS_P2;PMS_P1;PMS_P2;Temp;Humidity;BMP_temperature;BMP_pressure;BME280_temperature;BME280_humidity;BME280_pressure;Samples;Min_cycle;Max_cycle;Signal;HPM_P1;HPM_P2
2021/10/08 00:00:07;;;;;;;4.78;2.53;;;19.40;56.60;;;;;;5115647;28;20042;-58
2021/10/08 00:02:33;;;;;;;6.07;3.05;;;19.40;56.60;;;;;;5097527;28;20020;-59
2021/10/08 00:04:58;;;;;;;5.93;2.90;;;19.30;56.60;;;;;;5115505;28;20064;-58
2021/10/08 00:07:24;;;;;;;5.13;2.80;;;19.30;56.60;;;;;;5115418;28;20068;-59
2021/10/08 00:09:49;;;;;;;6.68;3.10;;;19.30;56.60;;;;;;5115450;28;20467;-59
2021/10/08 00:12:15;;;;;;;5.50;2.78;;;19.30;56.70;;;;;;5097062;28;20032;-58
2021/10/08 00:14:40;;;;;;;5.45;2.90;;;19.30;56.60;;;;;;5115319;28;20015;-60
2021/10/08 00:17:07;;;;;;;5.07;2.58;;;19.30;56.60;;;;;;5115549;28;20031;-58
2021/10/08 00:19:33;;;;;;;5.88;3.25;;;19.30;56.60;;;;;;5115219;28;20015;-58
2021/10/08 00:21:58;;;;;;;6.10;2.95;;;19.30;56.60;;;;;;5115146;28;20123;-58
2021/10/08 00:24:24;;;;;;;5.47;2.50;;;19.30;56.60;;;;;;5115332;28;20023;-57
2021/10/08 00:26:50;;;;;;;5.70;3.08;;;19.20;56.60;;;;;;5114979;28;20020;-58
2021/10/08 00:29:15;;;;;;;5.32;2.78;;;19.20;56.60;;;;;;5115181;28;20136;-59
2021/10/08 00:31:41;;;;;;;6.43;3.20;;;19.30;56.60;;;;;;5096577;28;20031;-59
2021/10/08 00:34:06;;;;;;;5.25;2.92;;;19.30;56.60;;;;;;5114930;28;20026;-59
2021/10/08 00:36:32;;;;;;;5.22;3.10;;;19.20;56.60;;;;;;5115056;28;20028;-58
2021/10/08 00:38:58;;;;;;;5.70;3.08;;;19.20;56.60;;;;;;5114633;28;20043;-60
2021/10/08 00:41:26;;;;;;;6.22;3.67;;;19.20;56.60;;;;;;5114882;28;20024;-59
2021/10/08 00:43:53;;;;;;;5.68;3.00;;;19.20;56.70;;;;;;5115030;28;20024;-59
2021/10/08 00:46:19;;;;;;;5.20;3.13;;;19.20;56.60;;;;;;5114660;28;20375;-60
2021/10/08 00:48:52;;;;;;;5.13;2.95;;;19.20;56.60;;;;;;5114623;28;20028;-59
2021/10/08 00:51:20;;;;;;;6.32;3.30;;;19.20;56.60;;;;;;5114765;28;20150;-58
2021/10/08 00:53:45;;;;;;;5.78;3.15;;;19.20;56.60;;;;;;5114824;28;20057;-59
2021/10/08 00:56:11;;;;;;;5.60;2.85;;;19.20;56.50;;;;;;5114581;28;20072;-59
2021/10/08 00:58:40;;;;;;;5.68;2.80;;;19.20;56.60;;;;;;5114505;28;20023;-59
2021/10/08 01:01:07;;;;;;;5.20;2.97;;;19.20;56.60;;;;;;5114344;28;20028;-59
2021/10/08 01:03:33;;;;;;;6.68;2.75;;;19.10;56.60;;;;;;5114818;28;20027;-58
2021/10/08 01:05:58;;;;;;;6.40;3.17;;;19.20;56.60;;;;;;5114476;28;20110;-60
2021/10/08 01:08:24;;;;;;;6.47;3.13;;;19.20;56.50;;;;;;5114307;28;20042;-60
2021/10/08 01:10:50;;;;;;;5.47;3.00;;;19.10;56.50;;;;;;5095798;28;20023;-59
2021/10/08 01:13:16;;;;;;;5.13;2.78;;;19.10;56.60;;;;;;5114395;28;20028;-59
2021/10/08 01:15:42;;;;;;;7.03;3.03;;;19.10;56.60;;;;;;5114126;28;20023;-59
2021/10/08 01:18:08;;;;;;;6.80;3.15;;;19.10;56.60;;;;;;5114046;28;20405;-60
2021/10/08 01:20:34;;;;;;;6.20;2.95;;;19.10;56.60;;;;;;5114210;28;20470;-59
2021/10/08 01:23:00;;;;;;;5.55;3.28;;;19.10;56.60;;;;;;5095668;28;20024;-59
2021/10/08 01:25:27;;;;;;;4.93;2.70;;;19.10;56.60;;;;;;5095710;28;20033;-59
2021/10/08 01:27:53;;;;;;;6.50;3.10;;;19.10;56.60;;;;;;5114159;28;20038;-59
2021/10/08 01:30:20;;;;;;;6.20;3.63;;;19.10;56.60;;;;;;5114062;28;20106;-59
2021/10/08 01:32:47;;;;;;;5.80;3.40;;;19.10;56.50;;;;;;5113795;28;20315;-59
2021/10/08 01:35:13;;;;;;;5.78;3.00;;;19.10;56.60;;;;;;5095560;28;20477;-59
2021/10/08 01:37:39;;;;;;;7.13;3.67;;;19.10;56.60;;;;;;5078712;28;20148;-60
2021/10/08 01:40:06;;;;;;;6.38;3.80;;;19.00;56.60;;;;;;5113631;28;20123;-60
2021/10/08 01:42:32;;;;;;;5.35;3.00;;;19.10;56.60;;;;;;5113667;28;20046;-60
2021/10/08 01:45:01;;;;;;;5.72;3.05;;;19.10;56.50;;;;;;5113751;28;20118;-59
2021/10/08 01:47:27;;;;;;;6.00;3.33;;;19.00;56.60;;;;;;5113620;28;20022;-59
2021/10/08 01:49:54;;;;;;;5.82;3.45;;;19.10;56.60;;;;;;5113643;28;20024;-58
2021/10/08 01:52:21;;;;;;;6.03;3.55;;;19.00;56.60;;;;;;5113797;28;20043;-58
2021/10/08 01:54:47;;;;;;;5.78;3.20;;;19.00;56.60;;;;;;5113675;28;20071;-60
2021/10/08 01:57:13;;;;;;;6.20;3.25;;;19.00;56.60;;;;;;5113553;28;20023;-58
2021/10/08 01:59:38;;;;;;;6.25;3.03;;;19.00;56.60;;;;;;5113412;28;20066;-60
2021/10/08 02:02:04;;;;;;;6.00;3.47;;;19.00;56.60;;;;;;5113687;28;20055;-59
2021/10/08 02:04:30;;;;;;;6.70;3.22;;;19.00;56.60;;;;;;5113414;28;20059;-58
2021/10/08 02:06:56;;;;;;;5.35;2.97;;;19.00;56.60;;;;;;5112831;28;20481;-60
2021/10/08 02:09:22;;;;;;;5.95;3.38;;;19.00;56.60;;;;;;5113416;28;20020;-60
2021/10/08 02:11:48;;;;;;;6.78;3.80;;;19.00;56.60;;;;;;5113551;28;20046;-58
2021/10/08 02:14:14;;;;;;;5.32;3.00;;;19.00;56.70;;;;;;5095134;28;20091;-59
2021/10/08 02:16:39;;;;;;;5.10;2.90;;;19.00;56.60;;;;;;5113507;28;20546;-58
2021/10/08 02:19:05;;;;;;;5.38;3.05;;;18.90;56.70;;;;;;5113321;28;20024;-59
2021/10/08 02:21:31;;;;;;;5.72;3.13;;;18.90;56.70;;;;;;5113263;28;20047;-58
2021/10/08 02:23:57;;;;;;;6.63;3.40;;;18.90;56.70;;;;;;5113297;28;20027;-59
2021/10/08 02:26:22;;;;;;;5.07;3.10;;;18.90;56.60;;;;;;5113179;28;20027;-59
2021/10/08 02:28:48;;;;;;;5.93;3.17;;;19.00;56.60;;;;;;5113225;28;20042;-59
2021/10/08 02:31:14;;;;;;;7.55;3.72;;;18.90;56.70;;;;;;5113208;28;20036;-59
2021/10/08 02:33:40;;;;;;;5.43;3.45;;;18.90;56.70;;;;;;5094869;28;20072;-59
2021/10/08 02:36:07;;;;;;;7.60;3.03;;;18.90;56.60;;;;;;5113123;28;20032;-59
2021/10/08 02:38:33;;;;;;;6.03;3.42;;;18.90;56.60;;;;;;5112911;28;20420;-58
2021/10/08 02:40:59;;;;;;;6.85;3.55;;;18.90;56.60;;;;;;5113097;28;20547;-59
2021/10/08 02:43:25;;;;;;;7.47;3.60;;;18.90;56.70;;;;;;5113073;28;20027;-58
2021/10/08 02:45:51;;;;;;;5.97;3.25;;;18.90;56.70;;;;;;5113080;28;20020;-59
2021/10/08 02:48:16;;;;;;;6.10;2.78;;;18.80;56.70;;;;;;5113348;28;20073;-59
2021/10/08 02:50:42;;;;;;;7.30;3.58;;;18.90;56.70;;;;;;5112996;28;20069;-58
2021/10/08 02:53:08;;;;;;;6.38;3.38;;;18.90;56.70;;;;;;5113144;28;20038;-58
2021/10/08 02:55:34;;;;;;;5.72;2.97;;;18.80;56.70;;;;;;5113140;28;20439;-59
2021/10/08 02:58:00;;;;;;;6.57;3.13;;;18.80;56.70;;;;;;5113166;28;20059;-58
2021/10/08 03:00:25;;;;;;;6.57;2.95;;;18.80;56.60;;;;;;5113219;28;20076;-60
2021/10/08 03:02:51;;;;;;;5.72;3.13;;;18.80;56.60;;;;;;5113161;28;20482;-59
2021/10/08 03:05:17;;;;;;;6.50;3.63;;;18.80;56.70;;;;;;5113015;28;20098;-58
2021/10/08 03:07:42;;;;;;;5.20;2.88;;;18.80;56.70;;;;;;5112944;28;20019;-58
2021/10/08 03:10:10;;;;;;;6.35;3.67;;;18.80;56.70;;;;;;5112848;28;20114;-59
2021/10/08 03:12:36;;;;;;;6.55;3.42;;;18.80;56.70;;;;;;5112711;28;20028;-59
2021/10/08 03:15:02;;;;;;;5.85;3.10;;;18.80;56.70;;;;;;5112837;28;20020;-59
2021/10/08 03:17:28;;;;;;;6.18;3.15;;;18.80;56.70;;;;;;5112892;28;20063;-59
2021/10/08 03:19:53;;;;;;;6.38;3.25;;;18.80;56.60;;;;;;5115278;28;20028;-60
2021/10/08 03:22:19;;;;;;;7.40;3.50;;;18.80;56.70;;;;;;5116277;28;20478;-59
2021/10/08 03:24:45;;;;;;;5.32;2.90;;;18.80;56.70;;;;;;5116567;28;20027;-60
2021/10/08 03:27:10;;;;;;;5.70;3.00;;;18.80;56.70;;;;;;5116190;28;20035;-60
2021/10/08 03:29:36;;;;;;;8.05;3.55;;;18.80;56.70;;;;;;5116199;28;20423;-59
2021/10/08 03:32:03;;;;;;;5.68;3.45;;;18.80;56.70;;;;;;5116247;28;20039;-58
2021/10/08 03:34:28;;;;;;;5.68;3.28;;;18.80;56.70;;;;;;5116013;28;20023;-59
2021/10/08 03:36:57;;;;;;;6.68;3.40;;;18.80;56.60;;;;;;5116392;28;20028;-58
2021/10/08 03:39:26;;;;;;;5.95;3.22;;;18.80;56.70;;;;;;5115909;28;20040;-59
2021/10/08 03:41:53;;;;;;;7.00;3.58;;;18.70;56.60;;;;;;5115907;28;20032;-58
2021/10/08 03:44:21;;;;;;;6.30;3.75;;;18.80;56.70;;;;;;5115932;28;20028;-58
2021/10/08 03:46:56;;;;;;;6.78;3.50;;;18.70;56.60;;;;;;5115872;28;20023;-58
2021/10/08 03:49:23;;;;;;;5.95;3.38;;;18.70;56.70;;;;;;5116176;28;20107;-58
2021/10/08 03:51:51;;;;;;;5.47;3.10;;;18.70;56.70;;;;;;5115694;28;20035;-58
2021/10/08 03:54:17;;;;;;;6.53;3.40;;;18.70;56.70;;;;;;5115890;28;20034;-58
2021/10/08 03:56:44;;;;;;;6.75;3.67;;;18.70;56.70;;;;;;5115942;28;20038;-60
2021/10/08 03:59:10;;;;;;;6.63;3.38;;;18.70;56.70;;;;;;5115621;28;20098;-59
2021/10/08 04:01:36;;;;;;;5.97;3.40;;;18.70;56.70;;;;;;5115877;28;20150;-60
2021/10/08 04:04:04;;;;;;;7.90;3.47;;;18.70;56.70;;;;;;5115617;28;20023;-59
2021/10/08 04:06:31;;;;;;;7.20;3.70;;;18.70;56.80;;;;;;5115503;28;20482;-58
2021/10/08 04:08:57;;;;;;;5.93;3.00;;;18.60;56.70;;;;;;5115670;28;20046;-59
2021/10/08 04:11:22;;;;;;;5.80;3.25;;;18.70;56.70;;;;;;5115238;28;20470;-59
2021/10/08 04:13:48;;;;;;;5.88;3.33;;;18.60;56.70;;;;;;5115504;28;20024;-59
2021/10/08 04:16:13;;;;;;;6.70;4.10;;;18.70;56.70;;;;;;5115286;28;20193;-58
2021/10/08 04:18:39;;;;;;;7.22;3.35;;;18.60;56.70;;;;;;5115502;28;20451;-58
2021/10/08 04:21:04;;;;;;;6.22;3.30;;;18.60;56.70;;;;;;5115449;28;20035;-58
2021/10/08 04:23:30;;;;;;;6.20;3.17;;;18.60;56.70;;;;;;5115313;28;20076;-58
2021/10/08 04:25:56;;;;;;;6.57;3.70;;;18.60;56.70;;;;;;5097222;28;20016;-59
2021/10/08 04:28:21;;;;;;;6.93;3.63;;;18.60;56.70;;;;;;5115053;28;20020;-59
2021/10/08 04:30:47;;;;;;;6.80;3.60;;;18.60;56.70;;;;;;5114744;28;20023;-59
2021/10/08 04:33:18;;;;;;;6.43;3.30;;;18.60;56.70;;;;;;5115058;28;20019;-59
2021/10/08 04:35:44;;;;;;;6.60;3.58;;;18.60;56.70;;;;;;5114935;28;20032;-59
2021/10/08 04:38:10;;;;;;;5.78;3.20;;;18.60;56.60;;;;;;5114916;28;20437;-60
2021/10/08 04:40:36;;;;;;;6.25;3.42;;;18.60;56.60;;;;;;5114763;28;20046;-58
2021/10/08 04:43:02;;;;;;;6.10;3.67;;;18.60;56.60;;;;;;5114818;28;20494;-58
2021/10/08 04:45:27;;;;;;;6.50;3.40;;;18.60;56.60;;;;;;5096447;28;20066;-57
2021/10/08 04:47:53;;;;;;;5.55;3.03;;;18.50;56.70;;;;;;5114939;28;20016;-57
2021/10/08 04:50:18;;;;;;;6.70;3.45;;;18.60;56.60;;;;;;5114875;28;20481;-60
2021/10/08 04:52:44;;;;;;;7.40;3.95;;;18.60;56.70;;;;;;5114291;28;20031;-59
2021/10/08 04:55:10;;;;;;;6.15;3.33;;;18.60;56.60;;;;;;5114834;28;20421;-57
2021/10/08 04:57:36;;;;;;;5.82;3.08;;;18.60;56.60;;;;;;5114711;28;20024;-59
2021/10/08 05:00:04;;;;;;;5.75;3.30;;;18.50;56.60;;;;;;5114437;28;20463;-56
2021/10/08 05:02:29;;;;;;;6.03;3.22;;;18.50;56.60;;;;;;5114450;28;20031;-57
2021/10/08 05:04:55;;;;;;;6.78;3.17;;;18.50;56.70;;;;;;5114368;28;20490;-59
2021/10/08 05:07:20;;;;;;;6.45;3.40;;;18.50;56.70;;;;;;5114234;28;20028;-58
2021/10/08 05:09:46;;;;;;;6.68;3.58;;;18.50;56.70;;;;;;5114298;28;20027;-58
2021/10/08 05:12:11;;;;;;;5.68;3.28;;;18.50;56.70;;;;;;5113921;28;20111;-58
2021/10/08 05:14:37;;;;;;;6.60;3.45;;;18.50;56.70;;;;;;5114281;28;20359;-59
2021/10/08 05:17:03;;;;;;;5.05;3.15;;;18.50;56.70;;;;;;5114099;28;20470;-60
2021/10/08 05:19:28;;;;;;;6.00;3.45;;;18.50;56.70;;;;;;5114043;28;20034;-59
2021/10/08 05:21:54;;;;;;;6.03;3.50;;;18.50;56.70;;;;;;5113900;28;20061;-59
2021/10/08 05:24:21;;;;;;;5.85;3.33;;;18.40;56.70;;;;;;5113928;28;20501;-60
2021/10/08 05:26:47;;;;;;;5.35;2.80;;;18.50;56.70;;;;;;5113995;28;20060;-58
2021/10/08 05:29:12;;;;;;;5.63;2.90;;;18.50;56.70;;;;;;5113857;28;20103;-57
2021/10/08 05:31:38;;;;;;;5.75;3.35;;;18.50;56.70;;;;;;5113681;28;20024;-59
2021/10/08 05:34:03;;;;;;;5.43;3.03;;;18.50;56.70;;;;;;5113848;28;20121;-58
2021/10/08 05:36:29;;;;;;;6.53;3.40;;;18.50;56.70;;;;;;5113602;28;20463;-59
2021/10/08 05:38:54;;;;;;;5.57;3.45;;;18.40;56.70;;;;;;5113698;28;20043;-57
2021/10/08 05:41:20;;;;;;;6.72;3.00;;;18.40;56.70;;;;;;5112941;28;20032;-59
2021/10/08 05:43:46;;;;;;;6.75;3.38;;;18.40;56.70;;;;;;5113898;28;20032;-60
2021/10/08 05:46:12;;;;;;;5.68;3.08;;;18.40;56.70;;;;;;5113770;28;20470;-58
2021/10/08 05:48:38;;;;;;;6.35;3.65;;;18.40;56.60;;;;;;5113859;28;20066;-58
2021/10/08 05:51:03;;;;;;;6.13;3.35;;;18.40;56.70;;;;;;5113438;28;20040;-59
2021/10/08 05:53:29;;;;;;;5.80;3.13;;;18.40;56.70;;;;;;5113611;28;20431;-59
2021/10/08 05:55:54;;;;;;;5.30;2.97;;;18.40;56.70;;;;;;5113802;28;20031;-59
2021/10/08 05:58:20;;;;;;;6.80;3.17;;;18.40;56.60;;;;;;5113486;28;20016;-59
2021/10/08 06:00:45;;;;;;;5.82;3.13;;;18.40;56.70;;;;;;5113577;28;20073;-59
2021/10/08 06:03:11;;;;;;;5.95;3.08;;;18.40;56.60;;;;;;5113474;28;20027;-61
2021/10/08 06:05:38;;;;;;;4.57;2.88;;;18.40;56.60;;;;;;5113441;28;20023;-60
2021/10/08 06:08:07;;;;;;;6.15;3.20;;;18.40;56.60;;;;;;5095178;28;20540;-58
2021/10/08 06:10:33;;;;;;;6.85;3.88;;;18.40;56.60;;;;;;5113302;28;20392;-60
2021/10/08 06:12:58;;;;;;;6.03;3.05;;;18.40;56.60;;;;;;5113323;28;20057;-58
2021/10/08 06:15:25;;;;;;;5.90;3.42;;;18.40;56.60;;;;;;5113508;28;20066;-59
2021/10/08 06:17:50;;;;;;;6.03;3.17;;;18.40;56.60;;;;;;5095007;28;20081;-57
2021/10/08 06:20:16;;;;;;;5.03;2.75;;;18.40;56.60;;;;;;5113113;28;20031;-59
2021/10/08 06:22:45;;;;;;;7.35;2.92;;;18.40;56.50;;;;;;5113342;28;20100;-59
2021/10/08 06:25:11;;;;;;;5.18;2.83;;;18.40;56.50;;;;;;5113163;28;20092;-60
2021/10/08 06:27:37;;;;;;;7.70;3.50;;;18.40;56.60;;;;;;5113322;28;20034;-60
2021/10/08 06:30:03;;;;;;;6.63;2.80;;;18.40;56.60;;;;;;5113282;28;20412;-59
2021/10/08 06:32:29;;;;;;;5.88;3.20;;;18.30;56.60;;;;;;5094879;28;20486;-57
2021/10/08 06:34:54;;;;;;;5.53;2.85;;;18.30;56.60;;;;;;5113379;28;20031;-59
2021/10/08 06:37:20;;;;;;;5.68;3.20;;;18.30;56.50;;;;;;5113130;28;20098;-58
2021/10/08 06:39:45;;;;;;;7.78;3.10;;;18.40;56.60;;;;;;5112923;28;20040;-56
2021/10/08 06:42:11;;;;;;;5.95;3.25;;;18.30;56.60;;;;;;5113080;28;20028;-59
2021/10/08 06:44:37;;;;;;;6.15;3.05;;;18.40;56.50;;;;;;5112932;28;20067;-59
2021/10/08 06:47:02;;;;;;;5.50;3.00;;;18.40;56.50;;;;;;5112887;28;20027;-59
2021/10/08 06:49:28;;;;;;;6.43;2.42;;;18.30;56.50;;;;;;5112883;28;20047;-59
2021/10/08 06:51:54;;;;;;;5.80;2.97;;;18.40;56.50;;;;;;5112900;28;20031;-58
2021/10/08 06:54:19;;;;;;;4.85;2.80;;;18.30;56.40;;;;;;5116507;28;20363;-59
2021/10/08 06:56:45;;;;;;;8.85;3.50;;;18.40;56.40;;;;;;5116752;28;20020;-60
2021/10/08 06:59:10;;;;;;;7.03;2.63;;;18.40;56.40;;;;;;5116765;28;20425;-59
2021/10/08 07:01:36;;;;;;;5.75;2.80;;;18.40;56.30;;;;;;5117046;28;20055;-59
2021/10/08 07:04:01;;;;;;;5.47;2.90;;;18.40;56.30;;;;;;5116366;28;20055;-59
2021/10/08 07:06:29;;;;;;;6.55;2.83;;;18.40;56.30;;;;;;5116858;28;20399;-60
2021/10/08 07:08:55;;;;;;;5.65;2.97;;;18.40;56.30;;;;;;5116859;28;20023;-59
2021/10/08 07:11:20;;;;;;;5.70;3.08;;;18.40;56.20;;;;;;5116654;28;20119;-59
2021/10/08 07:13:46;;;;;;;5.03;2.80;;;18.40;56.20;;;;;;5116512;28;20059;-59
2021/10/08 07:16:11;;;;;;;6.72;2.90;;;18.40;56.20;;;;;;5116386;28;20390;-59
2021/10/08 07:18:38;;;;;;;4.95;2.80;;;18.40;56.10;;;;;;5116245;28;20024;-60
2021/10/08 07:21:06;;;;;;;5.75;2.97;;;18.40;56.10;;;;;;5116504;28;20064;-59
2021/10/08 07:23:33;;;;;;;6.28;3.10;;;18.40;56.10;;;;;;5097820;28;20023;-59
2021/10/08 07:25:59;;;;;;;5.15;2.97;;;18.40;56.10;;;;;;5115915;28;20356;-57
2021/10/08 07:28:24;;;;;;;5.43;2.75;;;18.50;56.10;;;;;;5116189;28;20031;-59
2021/10/08 07:30:50;;;;;;;5.13;2.78;;;18.40;56.10;;;;;;5097613;28;20110;-59
2021/10/08 07:33:15;;;;;;;5.47;3.05;;;18.40;56.10;;;;;;5116139;28;20035;-59
2021/10/08 07:35:41;;;;;;;6.18;2.92;;;18.50;56.00;;;;;;5116299;28;20031;-59
2021/10/08 07:38:07;;;;;;;6.25;2.85;;;18.50;56.00;;;;;;5116303;28;20027;-57
2021/10/08 07:40:34;;;;;;;5.80;2.90;;;18.50;56.00;;;;;;5115815;28;20050;-57
2021/10/08 07:42:59;;;;;;;4.63;2.30;;;18.50;56.00;;;;;;5116157;28;20024;-57
2021/10/08 07:45:25;;;;;;;5.55;2.97;;;18.50;56.00;;;;;;5115812;28;20050;-57
2021/10/08 07:47:50;;;;;;;4.90;2.65;;;18.50;55.90;;;;;;5115670;28;20409;-58
2021/10/08 07:50:16;;;;;;;6.13;3.17;;;18.50;55.90;;;;;;5115847;28;20016;-59
2021/10/08 07:52:42;;;;;;;5.85;2.90;;;18.50;55.90;;;;;;5115866;28;20031;-58
2021/10/08 07:55:10;;;;;;;5.10;2.55;;;18.50;55.90;;;;;;5115962;28;20443;-61
2021/10/08 07:57:37;;;;;;;6.93;3.20;;;18.50;55.90;;;;;;5115605;28;20420;-59
2021/10/08 08:00:07;;;;;;;5.88;2.97;;;18.50;55.90;;;;;;5115388;28;20075;-58
2021/10/08 08:02:32;;;;;;;4.75;2.70;;;18.50;55.80;;;;;;5115487;28;20070;-59
2021/10/08 08:04:58;;;;;;;5.82;2.92;;;18.50;55.90;;;;;;5114716;28;20125;-59
2021/10/08 08:07:24;;;;;;;5.55;2.97;;;18.50;55.80;;;;;;5115577;28;20027;-59
2021/10/08 08:09:50;;;;;;;5.40;2.85;;;18.50;55.80;;;;;;5115453;28;20079;-59
2021/10/08 08:12:17;;;;;;;5.82;2.70;;;18.50;55.80;;;;;;5115124;28;20475;-57
2021/10/08 08:14:43;;;;;;;6.85;2.88;;;18.50;55.80;;;;;;5115185;28;20030;-60
2021/10/08 08:17:09;;;;;;;5.03;2.63;;;18.50;55.80;;;;;;5115286;28;20028;-57
2021/10/08 08:19:34;;;;;;;6.13;3.13;;;18.50;55.80;;;;;;5115489;28;20042;-59
2021/10/08 08:22:00;;;;;;;5.90;3.17;;;18.50;55.80;;;;;;5096837;28;20390;-57
2021/10/08 08:24:25;;;;;;;6.00;2.92;;;18.50;55.70;;;;;;5096698;28;20023;-58
2021/10/08 08:26:51;;;;;;;5.82;2.63;;;18.50;55.80;;;;;;5115301;28;20028;-56
2021/10/08 08:29:17;;;;;;;5.97;2.72;;;18.50;55.80;;;;;;5115123;28;20024;-56
2021/10/08 08:31:43;;;;;;;6.38;3.33;;;18.50;55.80;;;;;;5114883;28;20046;-56
2021/10/08 08:34:09;;;;;;;6.30;2.85;;;18.50;55.80;;;;;;5114747;28;20488;-60
2021/10/08 08:36:34;;;;;;;6.15;2.75;;;18.50;55.80;;;;;;5114969;28;20110;-58
2021/10/08 08:39:04;;;;;;;6.18;3.05;;;18.50;55.80;;;;;;5114785;28;20387;-57
2021/10/08 08:41:31;;;;;;;4.88;2.65;;;18.50;55.80;;;;;;5114955;28;20378;-59
2021/10/08 08:43:57;;;;;;;4.88;2.58;;;18.50;55.80;;;;;;5114568;28;20023;-57
2021/10/08 08:46:22;;;;;;;7.25;2.95;;;18.50;55.80;;;;;;5114823;28;20019;-59
2021/10/08 08:48:49;;;;;;;5.80;2.60;;;18.50;55.80;;;;;;5114819;28;20387;-59
2021/10/08 08:51:15;;;;;;;6.43;3.05;;;18.50;55.80;;;;;;5114660;28;20023;-57
2021/10/08 08:53:40;;;;;;;5.50;3.15;;;18.50;55.80;;;;;;5096054;28;20034;-59
2021/10/08 08:56:06;;;;;;;6.35;2.72;;;18.50;55.80;;;;;;5114395;28;20103;-59
2021/10/08 08:58:31;;;;;;;8.25;2.88;;;18.50;55.80;;;;;;5114500;28;20024;-57
2021/10/08 09:00:59;;;;;;;4.95;2.50;;;18.50;55.80;;;;;;5114188;28;20455;-59
2021/10/08 09:03:25;;;;;;;6.40;2.72;;;18.60;55.80;;;;;;5114231;28;20024;-58
2021/10/08 09:05:51;;;;;;;7.18;2.72;;;18.60;55.70;;;;;;5114244;28;20535;-59
2021/10/08 09:08:18;;;;;;;5.38;2.80;;;18.60;55.70;;;;;;5114107;28;20020;-57
2021/10/08 09:10:46;;;;;;;5.18;2.50;;;18.60;55.70;;;;;;5114072;28;20031;-58
2021/10/08 09:13:16;;;;;;;6.18;3.08;;;18.60;55.70;;;;;;5113914;28;20024;-57
2021/10/08 09:15:48;;;;;;;5.20;2.58;;;18.60;55.70;;;;;;5114094;28;20015;-57
2021/10/08 09:18:16;;;;;;;7.50;2.90;;;18.70;55.60;;;;;;5113910;28;20019;-58
2021/10/08 09:21:09;;;;;;;5.15;2.70;;;18.70;55.60;;;;;;5113547;28;20475;-56
2021/10/08 09:23:49;;;;;;;6.35;3.05;;;18.60;55.60;;;;;;5113682;28;20027;-57
2021/10/08 09:26:24;;;;;;;5.85;2.45;;;18.70;55.60;;;;;;5113826;28;20020;-58
2021/10/08 09:28:55;;;;;;;5.50;2.50;;;18.70;55.60;;;;;;5113779;28;20030;-58
2021/10/08 09:31:25;;;;;;;5.90;2.80;;;18.70;55.50;;;;;;5113643;28;20027;-58
2021/10/08 09:34:10;;;;;;;7.72;3.45;;;18.70;55.50;;;;;;5113643;28;20035;-57
2021/10/08 09:36:37;;;;;;;5.13;2.53;;;18.70;55.50;;;;;;5113795;28;20023;-58
2021/10/08 09:39:15;;;;;;;8.63;3.17;;;18.70;55.50;;;;;;5113434;28;20066;-58
2021/10/08 09:41:40;;;;;;;5.35;3.00;;;18.80;55.40;;;;;;5113599;28;20036;-58
2021/10/08 09:44:07;;;;;;;4.82;2.55;;;18.80;55.40;;;;;;5113363;28;20027;-57
2021/10/08 09:46:32;;;;;;;5.50;2.45;;;18.80;55.30;;;;;;5113340;28;20037;-58
2021/10/08 09:48:58;;;;;;;5.50;2.63;;;18.80;55.30;;;;;;5113687;28;20098;-59
2021/10/08 09:51:29;;;;;;;5.38;2.90;;;18.90;55.30;;;;;;5095113;28;20069;-56
2021/10/08 09:53:55;;;;;;;5.78;2.90;;;18.80;55.30;;;;;;5113273;28;20429;-59
2021/10/08 09:56:38;;;;;;;6.03;2.63;;;18.90;55.30;;;;;;5113331;28;20084;-59
2021/10/08 09:59:06;;;;;;;5.30;2.72;;;18.90;55.30;;;;;;5113341;28;20072;-59
2021/10/08 10:01:35;;;;;;;5.00;2.45;;;18.90;55.10;;;;;;5113191;28;20046;-60
2021/10/08 10:04:02;;;;;;;5.85;2.60;;;19.00;55.20;;;;;;5113291;28;20440;-59
2021/10/08 10:06:28;;;;;;;4.95;2.35;;;18.90;55.20;;;;;;5095244;28;20018;-61
2021/10/08 10:08:53;;;;;;;5.30;2.30;;;19.00;55.20;;;;;;5113178;28;20027;-59
2021/10/08 10:11:25;;;;;;;5.72;2.80;;;19.00;55.20;;;;;;5113067;28;20035;-59
2021/10/08 10:13:57;;;;;;;5.97;2.78;;;19.00;55.10;;;;;;5113290;28;20027;-58
2021/10/08 10:16:24;;;;;;;5.45;2.40;;;19.10;55.10;;;;;;5113134;28;20032;-59
2021/10/08 10:18:54;;;;;;;4.30;2.25;;;19.20;55.10;;;;;;5113060;28;20019;-59
2021/10/08 10:21:23;;;;;;;5.68;2.63;;;19.20;55.10;;;;;;5112973;28;20043;-59
2021/10/08 10:23:51;;;;;;;4.25;2.40;;;19.20;55.10;;;;;;5113033;28;20063;-58
2021/10/08 10:26:18;;;;;;;5.82;2.35;;;19.20;55.10;;;;;;5113197;28;20028;-59
2021/10/08 10:28:44;;;;;;;5.05;2.45;;;19.20;55.00;;;;;;5115541;28;20020;-60
2021/10/08 10:31:11;;;;;;;5.05;2.60;;;19.30;55.00;;;;;;5116991;28;20177;-58
2021/10/08 10:33:37;;;;;;;5.35;2.38;;;19.30;55.00;;;;;;5116828;28;20107;-59
2021/10/08 10:36:06;;;;;;;5.10;2.35;;;19.30;54.90;;;;;;5117239;28;20134;-58
2021/10/08 10:38:32;;;;;;;6.22;3.17;;;19.30;54.90;;;;;;5116628;28;20471;-59
2021/10/08 10:41:09;;;;;;;6.22;2.67;;;19.40;54.90;;;;;;5117014;28;20031;-59
2021/10/08 10:43:37;;;;;;;4.78;2.20;;;19.40;54.80;;;;;;5116775;28;20059;-60
2021/10/08 10:46:21;;;;;;;4.70;2.30;;;19.50;54.70;;;;;;5116750;28;20019;-58
2021/10/08 10:51:58;;;;;;;4.65;2.33;;;19.50;54.60;;;;;;5116820;28;20136;-58
2021/10/08 10:54:42;;;;;;;5.43;2.33;;;19.60;54.50;;;;;;5116816;28;20122;-60
2021/10/08 10:57:12;;;;;;;5.60;2.42;;;19.60;54.40;;;;;;5116526;28;20092;-59
2021/10/08 10:59:41;;;;;;;4.85;2.00;;;19.70;54.40;;;;;;5116974;28;20022;-59
2021/10/08 11:02:08;;;;;;;3.88;2.40;;;19.70;54.30;;;;;;5116721;28;20020;-58
2021/10/08 11:04:37;;;;;;;4.38;2.28;;;19.70;54.30;;;;;;5116545;28;20364;-60
2021/10/08 11:07:11;;;;;;;3.90;2.05;;;19.80;54.20;;;;;;5116594;28;20575;-59
2021/10/08 11:09:38;;;;;;;3.77;1.90;;;19.80;54.20;;;;;;5116523;28;20074;-59
2021/10/08 11:12:37;;;;;;;5.32;2.40;;;19.80;54.10;;;;;;5116554;28;20625;-58
2021/10/08 11:15:15;;;;;;;4.13;2.10;;;19.90;54.10;;;;;;5098187;28;20016;-58
2021/10/08 11:17:53;;;;;;;6.22;2.50;;;20.00;54.00;;;;;;5116259;28;20024;-58
2021/10/08 11:20:31;;;;;;;3.60;1.92;;;20.00;53.90;;;;;;5116224;28;20102;-58
2021/10/08 11:23:04;;;;;;;4.85;2.45;;;20.00;53.80;;;;;;5116139;28;20473;-59
2021/10/08 11:25:32;;;;;;;4.67;2.00;;;20.10;53.70;;;;;;5116567;28;20478;-60
2021/10/08 11:27:59;;;;;;;5.40;2.28;;;20.10;53.70;;;;;;5116052;28;20330;-57
2021/10/08 11:30:26;;;;;;;4.55;2.10;;;20.20;53.60;;;;;;5116227;28;20031;-58
2021/10/08 11:32:54;;;;;;;4.25;2.15;;;20.20;53.50;;;;;;5116132;28;20062;-59
2021/10/08 11:35:36;;;;;;;3.83;1.95;;;20.30;53.50;;;;;;5116100;28;20024;-60
2021/10/08 11:38:04;;;;;;;5.00;2.10;;;20.40;53.50;;;;;;5115897;28;20024;-59
2021/10/08 11:40:36;;;;;;;5.03;2.25;;;20.40;53.30;;;;;;5114412;28;20108;-59
2021/10/08 11:43:09;;;;;;;5.30;2.30;;;20.40;53.40;;;;;;5097606;28;20016;-59
2021/10/08 11:45:52;;;;;;;3.72;1.88;;;20.50;53.20;;;;;;5115821;28;20027;-58
2021/10/08 11:48:24;;;;;;;4.05;2.10;;;20.50;53.20;;;;;;5115851;28;20075;-59
2021/10/08 11:53:15;;;;;;;4.05;1.83;;;20.60;53.00;;;;;;5116068;28;20024;-57
2021/10/08 11:55:41;;;;;;;3.70;1.63;;;20.60;52.90;;;;;;5115792;28;20015;-59
2021/10/08 11:58:16;;;;;;;4.60;2.00;;;20.70;52.90;;;;;;5115392;28;20027;-57
2021/10/08 12:00:52;;;;;;;4.07;2.03;;;20.70;52.90;;;;;;5115582;28;20487;-58
2021/10/08 12:03:20;;;;;;;5.63;2.22;;;20.70;52.90;;;;;;5099106;28;20035;-59
2021/10/08 12:05:53;;;;;;;4.60;2.03;;;20.70;53.00;;;;;;5115468;28;20461;-59
2021/10/08 12:08:28;;;;;;;3.83;1.70;;;20.70;52.90;;;;;;5115556;28;20026;-59
2021/10/08 12:10:57;;;;;;;3.78;2.08;;;20.70;53.00;;;;;;5096935;28;20023;-60
2021/10/08 12:13:42;;;;;;;3.30;1.52;;;20.60;53.10;;;;;;5115279;28;20024;-59
2021/10/08 12:16:08;;;;;;;4.57;1.98;;;20.60;53.10;;;;;;5115255;28;20047;-58
2021/10/08 12:18:34;;;;;;;3.95;1.98;;;20.60;53.30;;;;;;5115081;28;20035;-57
2021/10/08 12:21:10;;;;;;;4.28;1.88;;;20.50;53.20;;;;;;5097051;28;20026;-59
2021/10/08 12:23:36;;;;;;;3.80;1.70;;;20.60;53.30;;;;;;5115177;28;20420;-59
2021/10/08 12:26:01;;;;;;;4.60;2.72;;;20.50;53.30;;;;;;5115331;28;20471;-58
2021/10/08 12:28:27;;;;;;;3.42;1.92;;;20.50;53.40;;;;;;5115044;28;20036;-60
2021/10/08 12:31:03;;;;;;;3.08;1.70;;;20.50;53.60;;;;;;5114886;28;20499;-59
2021/10/08 12:33:43;;;;;;;3.22;1.67;;;20.50;53.50;;;;;;5114911;28;20038;-58
2021/10/08 12:36:14;;;;;;;3.75;1.77;;;20.40;53.70;;;;;;5114914;28;20019;-58
2021/10/08 12:39:05;;;;;;;4.05;1.70;;;20.40;53.80;;;;;;5114840;28;20030;-58
2021/10/08 12:41:49;;;;;;;4.95;1.85;;;20.40;54.00;;;;;;5103121;28;20044;-56
2021/10/08 12:44:19;;;;;;;4.60;1.60;;;20.30;53.90;;;;;;5096807;28;20022;-58
2021/10/08 12:49:45;;;;;;;4.28;2.03;;;20.30;54.00;;;;;;5114838;28;20114;-61
2021/10/08 12:52:11;;;;;;;4.20;1.70;;;20.20;53.90;;;;;;5114321;28;20058;-58
2021/10/08 12:54:36;;;;;;;3.70;1.90;;;20.20;53.90;;;;;;5114628;28;20467;-59
2021/10/08 12:57:20;;;;;;;3.50;1.77;;;20.30;53.90;;;;;;5114396;28;20023;-60